Time;durP1;ratioP1;P1;durP2;ratioP2;P2;SDS_P1;SDS_P2;PMS_P1;PMS_P2;Temp;Humidity;BMP_temperature;BMP_pressure;BME280_temperature;BME280_humidity;BME280_pressure;Samples;Min_cycle;Max_cycle;Signal;HPM_P1;HPM_P2
2021/09/25 00:01:01;;;;;;;19.67;12.13;;;17.10;99.90;;;;;;5070910;28;20032;-46
2021/09/25 00:03:26;;;;;;;18.15;11.98;;;17.00;99.90;;;;;;5070650;28;20038;-47
2021/09/25 00:05:52;;;;;;;23.92;14.32;;;17.00;99.90;;;;;;5070724;28;20041;-46
2021/09/25 00:08:17;;;;;;;22.08;12.85;;;16.90;99.90;;;;;;5069746;28;20089;-46
2021/09/25 00:10:43;;;;;;;20.95;13.25;;;17.00;99.90;;;;;;5070268;28;20187;-48
2021/09/25 00:13:09;;;;;;;18.20;11.93;;;17.00;99.90;;;;;;5068926;28;20036;-46
2021/09/25 00:15:35;;;;;;;20.30;13.13;;;16.90;99.90;;;;;;5070449;28;20078;-46
2021/09/25 00:18:03;;;;;;;15.73;12.45;;;16.90;99.90;;;;;;5068251;28;20021;-48
2021/09/25 00:20:30;;;;;;;19.52;13.10;;;16.90;99.90;;;;;;5070294;28;20112;-47
2021/09/25 00:22:55;;;;;;;20.05;12.55;;;16.90;99.90;;;;;;5070347;28;20441;-46
2021/09/25 00:25:21;;;;;;;22.50;13.55;;;16.90;99.90;;;;;;5061251;28;20064;-46
2021/09/25 00:27:47;;;;;;;21.52;12.20;;;16.90;99.90;;;;;;5066987;28;20111;-46
2021/09/25 00:30:13;;;;;;;20.25;13.27;;;16.90;99.90;;;;;;5070461;28;20035;-47
2021/09/25 00:32:39;;;;;;;17.92;11.75;;;16.90;99.90;;;;;;5070160;28;20478;-46
2021/09/25 00:35:07;;;;;;;19.50;12.80;;;16.90;99.90;;;;;;5070226;28;20437;-46
2021/09/25 00:37:32;;;;;;;23.55;12.77;;;16.90;99.90;;;;;;5069404;28;20111;-47
2021/09/25 00:39:58;;;;;;;17.52;12.45;;;16.90;99.90;;;;;;5069809;28;20453;-46
2021/09/25 00:42:24;;;;;;;20.85;14.07;;;16.90;99.90;;;;;;5069976;28;20504;-46
2021/09/25 00:44:49;;;;;;;18.80;12.60;;;16.90;99.90;;;;;;5070075;28;20093;-47
2021/09/25 00:47:15;;;;;;;23.90;14.07;;;16.90;99.90;;;;;;5069190;28;20397;-47
2021/09/25 00:49:41;;;;;;;19.70;12.13;;;16.90;99.90;;;;;;5069925;28;20028;-46
2021/09/25 00:52:07;;;;;;;20.95;12.00;;;16.90;99.90;;;;;;5069602;28;20546;-46
2021/09/25 00:54:33;;;;;;;15.00;11.18;;;16.90;99.90;;;;;;5065862;28;20098;-47
2021/09/25 00:56:59;;;;;;;16.85;11.73;;;16.90;99.90;;;;;;5041919;28;20024;-47
2021/09/25 00:59:25;;;;;;;19.95;12.07;;;16.80;99.90;;;;;;5069362;28;20139;-47
2021/09/25 01:01:51;;;;;;;20.10;13.10;;;16.80;99.90;;;;;;5068082;28;20534;-47
2021/09/25 01:04:16;;;;;;;19.48;12.63;;;16.80;99.90;;;;;;5069282;28;20028;-46
2021/09/25 01:06:42;;;;;;;19.27;13.10;;;16.80;99.90;;;;;;5068646;28;20039;-46
2021/09/25 01:09:08;;;;;;;20.00;12.80;;;16.80;99.90;;;;;;5069148;28;20027;-46
2021/09/25 01:11:33;;;;;;;18.27;12.20;;;16.90;99.90;;;;;;5069358;28;20028;-46
2021/09/25 01:14:00;;;;;;;20.33;12.70;;;16.80;99.90;;;;;;5069221;28;20123;-46
2021/09/25 01:16:25;;;;;;;20.40;12.98;;;16.80;99.90;;;;;;5068913;28;20024;-46
2021/09/25 01:18:52;;;;;;;18.77;12.10;;;16.80;99.90;;;;;;5068591;28;20363;-47
2021/09/25 01:21:18;;;;;;;17.45;13.02;;;16.80;99.90;;;;;;5069063;28;20028;-46
2021/09/25 01:23:44;;;;;;;18.00;11.02;;;16.80;99.90;;;;;;5065897;28;20029;-48
2021/09/25 01:26:11;;;;;;;18.15;12.70;;;16.80;99.90;;;;;;5060219;28;20115;-47
2021/09/25 01:28:38;;;;;;;28.25;14.43;;;16.80;99.90;;;;;;5068482;28;20028;-47
2021/09/25 01:31:06;;;;;;;21.63;13.38;;;16.80;99.90;;;;;;5068887;28;20158;-46
2021/09/25 01:33:39;;;;;;;18.90;12.85;;;16.80;99.90;;;;;;5069059;28;20112;-47
2021/09/25 01:36:06;;;;;;;20.55;13.43;;;16.80;99.90;;;;;;5068743;28;20738;-46
2021/09/25 01:38:32;;;;;;;22.48;14.80;;;16.80;99.90;;;;;;5068103;28;20081;-46
2021/09/25 01:40:58;;;;;;;23.73;14.30;;;16.70;99.90;;;;;;5068430;28;20135;-47
2021/09/25 01:43:23;;;;;;;20.15;12.55;;;16.70;99.90;;;;;;5067287;28;20028;-47
2021/09/25 01:45:49;;;;;;;20.15;13.13;;;16.70;99.90;;;;;;5068675;28;20028;-50
2021/09/25 01:48:16;;;;;;;23.35;12.15;;;16.80;99.90;;;;;;5067970;28;20090;-46
2021/09/25 01:50:42;;;;;;;19.42;12.55;;;16.70;99.90;;;;;;5068620;28;20423;-49
2021/09/25 01:53:08;;;;;;;21.77;13.32;;;16.70;99.90;;;;;;5068486;28;20474;-47
2021/09/25 01:55:34;;;;;;;23.58;14.90;;;16.70;99.90;;;;;;5054289;28;20062;-47
2021/09/25 01:57:59;;;;;;;20.38;13.85;;;16.70;99.90;;;;;;5066762;28;20289;-48
2021/09/25 02:00:25;;;;;;;19.17;14.60;;;16.80;99.90;;;;;;5067146;28;20087;-49
2021/09/25 02:02:52;;;;;;;19.25;12.60;;;16.70;99.90;;;;;;5068550;28;20029;-47
2021/09/25 02:05:17;;;;;;;21.23;13.93;;;16.80;99.90;;;;;;5068354;28;20028;-46
2021/09/25 02:07:44;;;;;;;25.95;15.35;;;16.80;99.90;;;;;;5066485;28;20582;-46
2021/09/25 02:10:11;;;;;;;19.08;13.55;;;16.70;99.90;;;;;;5068235;28;20445;-47
2021/09/25 02:12:37;;;;;;;30.52;16.23;;;16.70;99.90;;;;;;5068401;28;20020;-47
2021/09/25 02:15:04;;;;;;;18.42;13.95;;;16.70;99.90;;;;;;5068358;28;20401;-46
2021/09/25 02:17:31;;;;;;;22.80;13.63;;;16.60;99.90;;;;;;5066148;28;20024;-46
2021/09/25 02:19:56;;;;;;;20.50;15.27;;;16.60;99.90;;;;;;5068219;28;20025;-48
2021/09/25 02:22:22;;;;;;;23.23;15.73;;;16.60;99.90;;;;;;5068340;28;20375;-46
2021/09/25 02:24:47;;;;;;;25.15;17.55;;;16.60;99.90;;;;;;5063508;28;20039;-47
2021/09/25 02:27:13;;;;;;;21.95;16.25;;;16.60;99.90;;;;;;5059865;28;20033;-46
2021/09/25 02:29:39;;;;;;;23.10;16.08;;;16.50;99.90;;;;;;5068218;28;20490;-46
2021/09/25 02:32:06;;;;;;;23.52;16.88;;;16.60;99.90;;;;;;5068137;28;20383;-47
2021/09/25 02:34:32;;;;;;;22.90;16.63;;;16.60;99.90;;;;;;5067999;28;20389;-46
2021/09/25 02:36:58;;;;;;;23.63;16.92;;;16.60;99.90;;;;;;5067374;28;20028;-47
2021/09/25 02:39:25;;;;;;;25.05;18.20;;;16.60;99.90;;;;;;5067893;28;20202;-47
2021/09/25 02:41:51;;;;;;;22.48;17.38;;;16.70;99.90;;;;;;5068180;28;20082;-50
2021/09/25 02:44:16;;;;;;;25.83;17.65;;;16.60;99.90;;;;;;5068164;28;20434;-46
2021/09/25 02:46:43;;;;;;;26.40;19.35;;;16.60;99.90;;;;;;5067376;28;20078;-48
2021/09/25 02:49:08;;;;;;;26.35;19.58;;;16.60;99.90;;;;;;5066721;28;20470;-48
2021/09/25 02:51:34;;;;;;;21.95;17.40;;;16.50;99.90;;;;;;5068097;28;20042;-46
2021/09/25 02:53:59;;;;;;;27.30;18.75;;;16.50;99.90;;;;;;5063671;28;20018;-47
2021/09/25 02:56:25;;;;;;;28.63;19.63;;;16.50;99.90;;;;;;5059358;28;20103;-48
2021/09/25 02:58:50;;;;;;;28.58;19.52;;;16.50;99.90;;;;;;5067606;28;20349;-50
2021/09/25 03:01:16;;;;;;;25.90;19.50;;;16.50;99.90;;;;;;5067857;28;20070;-46
2021/09/25 03:03:41;;;;;;;26.33;20.85;;;16.50;99.90;;;;;;5067930;28;20085;-46
2021/09/25 03:06:07;;;;;;;27.15;19.15;;;16.50;99.90;;;;;;5059458;28;20040;-45
2021/09/25 03:08:32;;;;;;;31.25;21.63;;;16.50;99.90;;;;;;5035036;28;20079;-46
2021/09/25 03:10:58;;;;;;;32.17;21.55;;;16.50;99.90;;;;;;5038255;28;20497;-45
2021/09/25 03:13:24;;;;;;;29.33;21.80;;;16.50;99.90;;;;;;5039751;28;20037;-46
2021/09/25 03:15:49;;;;;;;31.95;22.35;;;16.50;99.90;;;;;;5046381;28;20051;-46
2021/09/25 03:18:15;;;;;;;31.42;23.33;;;16.50;99.90;;;;;;5045816;28;20025;-47
2021/09/25 03:20:41;;;;;;;30.27;22.13;;;16.40;99.90;;;;;;5048549;28;20260;-47
2021/09/25 03:23:06;;;;;;;34.75;25.55;;;16.40;99.90;;;;;;5051276;28;20052;-46
2021/09/25 03:25:32;;;;;;;34.17;26.02;;;16.40;99.90;;;;;;5056459;28;20132;-46
2021/09/25 03:27:57;;;;;;;34.92;25.02;;;16.30;99.90;;;;;;5069140;28;20033;-45
2021/09/25 03:30:23;;;;;;;31.95;24.20;;;16.30;99.90;;;;;;5071118;28;20032;-46
2021/09/25 03:32:49;;;;;;;29.30;23.92;;;16.30;99.90;;;;;;5070986;28;20103;-46
2021/09/25 03:35:15;;;;;;;31.90;25.50;;;16.30;99.90;;;;;;5069683;28;20032;-46
2021/09/25 03:37:40;;;;;;;35.63;26.92;;;16.30;99.90;;;;;;5070389;28;20031;-45
2021/09/25 03:40:07;;;;;;;28.80;24.05;;;16.40;99.90;;;;;;5070950;28;20033;-46
2021/09/25 03:42:33;;;;;;;33.33;25.33;;;16.40;99.90;;;;;;5069618;28;20029;-46
2021/09/25 03:44:58;;;;;;;32.38;23.90;;;16.40;99.90;;;;;;5070968;28;20390;-46
2021/09/25 03:47:24;;;;;;;30.17;24.23;;;16.30;99.90;;;;;;5068870;28;20067;-47
2021/09/25 03:49:49;;;;;;;32.08;25.67;;;16.40;99.90;;;;;;5069658;28;20082;-47
2021/09/25 03:52:15;;;;;;;33.90;25.73;;;16.30;99.90;;;;;;5070790;28;20402;-46
2021/09/25 03:54:41;;;;;;;36.53;26.45;;;16.30;99.90;;;;;;5066938;28;20032;-47
2021/09/25 03:57:07;;;;;;;31.50;24.65;;;16.30;99.90;;;;;;5061796;28;20089;-47
2021/09/25 03:59:32;;;;;;;32.50;26.02;;;16.30;99.90;;;;;;5070542;28;20035;-47
2021/09/25 04:01:58;;;;;;;38.42;26.75;;;16.40;99.90;;;;;;5070498;28;20028;-46
2021/09/25 04:04:24;;;;;;;34.08;26.67;;;16.40;99.90;;;;;;5070470;28;20700;-48
2021/09/25 04:06:49;;;;;;;36.08;28.48;;;16.40;99.90;;;;;;5070226;28;20021;-47
2021/09/25 04:09:15;;;;;;;33.47;25.98;;;16.40;99.90;;;;;;5070289;28;20036;-47
2021/09/25 04:11:40;;;;;;;33.88;23.98;;;16.40;99.90;;;;;;5070310;28;20075;-47
2021/09/25 04:14:06;;;;;;;36.85;26.50;;;16.40;99.90;;;;;;5068884;28;20115;-47
2021/09/25 04:16:31;;;;;;;34.38;25.77;;;16.40;99.90;;;;;;5070100;28;20036;-48
2021/09/25 04:18:57;;;;;;;35.78;25.40;;;16.40;99.90;;;;;;5069809;28;20037;-48
2021/09/25 04:21:22;;;;;;;34.55;25.83;;;16.40;99.90;;;;;;5069134;28;20016;-47
2021/09/25 04:23:48;;;;;;;37.95;26.35;;;16.40;99.90;;;;;;5068259;28;20036;-46
2021/09/25 04:26:15;;;;;;;34.97;25.05;;;16.40;99.90;;;;;;5061408;28;20529;-47
2021/09/25 04:28:41;;;;;;;31.52;24.38;;;16.40;99.90;;;;;;5069587;28;20024;-48
2021/09/25 04:31:07;;;;;;;34.35;26.17;;;16.40;99.90;;;;;;5070043;28;20028;-46
2021/09/25 04:33:32;;;;;;;33.67;26.13;;;16.40;99.90;;;;;;5057426;28;20029;-47
2021/09/25 04:35:58;;;;;;;39.17;28.13;;;16.40;99.90;;;;;;5043123;28;20098;-48
2021/09/25 04:38:23;;;;;;;30.85;24.77;;;16.40;99.90;;;;;;5049455;28;20072;-47
2021/09/25 04:40:49;;;;;;;32.45;25.58;;;16.50;99.90;;;;;;5049624;28;20037;-47
2021/09/25 04:43:14;;;;;;;30.80;23.52;;;16.40;99.90;;;;;;5049852;28;20028;-44
2021/09/25 04:45:40;;;;;;;33.47;25.38;;;16.40;99.90;;;;;;5049737;28;20025;-47
2021/09/25 04:48:05;;;;;;;24.33;20.92;;;16.50;99.90;;;;;;5049025;28;20033;-47
2021/09/25 04:50:31;;;;;;;33.58;25.05;;;16.50;99.90;;;;;;5049793;28;20095;-48
2021/09/25 04:53:12;;;;;;;31.30;23.92;;;16.50;99.90;;;;;;5049903;28;20110;-45
2021/09/25 04:55:37;;;;;;;;;;;16.50;99.90;;;;;;5047283;28;20132;-47
2021/09/25 04:58:03;;;;;;;28.33;22.90;;;16.50;99.90;;;;;;5059162;28;19999;-47
2021/09/25 05:00:29;;;;;;;36.60;25.17;;;16.50;99.90;;;;;;5069423;28;20494;-46
2021/09/25 05:02:54;;;;;;;28.67;22.95;;;16.50;99.90;;;;;;5069699;28;20207;-47
2021/09/25 05:05:20;;;;;;;35.13;25.48;;;16.50;99.90;;;;;;5069792;28;20036;-48
2021/09/25 05:07:46;;;;;;;29.08;21.70;;;16.60;99.90;;;;;;5069081;28;20031;-46
2021/09/25 05:10:12;;;;;;;23.42;20.27;;;16.50;99.90;;;;;;5069264;28;20398;-47
2021/09/25 05:12:37;;;;;;;26.88;22.48;;;16.60;99.90;;;;;;5069302;28;20039;-46
2021/09/25 05:15:03;;;;;;;26.73;21.98;;;16.50;99.90;;;;;;5069281;28;20498;-47
2021/09/25 05:17:29;;;;;;;30.85;24.95;;;16.50;99.90;;;;;;5068616;28;20032;-48
2021/09/25 05:19:54;;;;;;;31.05;23.02;;;16.50;99.90;;;;;;5069014;28;20599;-48
2021/09/25 05:22:20;;;;;;;30.33;24.45;;;16.50;99.90;;;;;;5069057;28;20036;-46
2021/09/25 05:24:45;;;;;;;28.17;22.58;;;16.60;99.90;;;;;;5054154;28;20064;-45
2021/09/25 05:27:12;;;;;;;28.65;23.65;;;16.50;99.90;;;;;;5059985;28;20078;-46
2021/09/25 05:29:38;;;;;;;29.27;23.77;;;16.60;99.90;;;;;;5068818;28;20382;-47
2021/09/25 05:32:05;;;;;;;28.83;22.77;;;16.50;99.90;;;;;;5069098;28;20082;-48
2021/09/25 05:34:31;;;;;;;23.85;21.25;;;16.60;99.90;;;;;;5068600;28;20037;-49
2021/09/25 05:36:57;;;;;;;28.35;22.85;;;16.60;99.90;;;;;;5068174;28;20091;-46
2021/09/25 05:39:23;;;;;;;21.92;19.63;;;16.60;99.90;;;;;;5068562;28;20039;-45
2021/09/25 05:41:48;;;;;;;23.92;20.67;;;16.60;99.90;;;;;;5068670;28;20541;-46
2021/09/25 05:44:14;;;;;;;27.00;21.48;;;16.60;99.90;;;;;;5066940;28;20055;-47
2021/09/25 05:46:39;;;;;;;26.70;20.27;;;16.60;99.90;;;;;;5067957;28;20048;-46
2021/09/25 05:49:05;;;;;;;29.02;21.35;;;16.60;99.90;;;;;;5068567;28;20083;-46
2021/09/25 05:51:30;;;;;;;24.75;19.33;;;16.60;99.90;;;;;;5068182;28;20020;-47
2021/09/25 05:53:56;;;;;;;25.08;20.35;;;16.70;99.90;;;;;;5065795;28;20062;-46
2021/09/25 05:56:21;;;;;;;27.00;20.63;;;16.70;99.90;;;;;;5049907;28;20480;-47
2021/09/25 05:58:47;;;;;;;24.27;19.70;;;16.60;99.90;;;;;;5065046;28;20031;-48
2021/09/25 06:01:12;;;;;;;24.58;18.50;;;16.60;99.90;;;;;;5068534;28;20530;-46
2021/09/25 06:03:38;;;;;;;27.20;20.42;;;16.60;99.90;;;;;;5068606;28;20020;-46
2021/09/25 06:06:03;;;;;;;24.38;19.30;;;16.60;99.90;;;;;;5068413;28;20483;-47
2021/09/25 06:08:29;;;;;;;29.63;21.13;;;16.60;99.90;;;;;;5067888;28;20071;-48
2021/09/25 06:10:54;;;;;;;21.42;17.67;;;16.60;99.90;;;;;;5068005;28;20105;-46
2021/09/25 06:13:20;;;;;;;18.48;16.52;;;16.60;99.90;;;;;;5068114;28;20032;-49
2021/09/25 06:15:46;;;;;;;21.60;17.27;;;16.60;99.90;;;;;;5068372;28;20083;-47
2021/09/25 06:18:12;;;;;;;26.92;18.75;;;16.60;99.90;;;;;;5067645;28;20033;-47
2021/09/25 06:20:39;;;;;;;23.70;17.90;;;16.60;99.90;;;;;;5066875;28;20031;-50
2021/09/25 06:23:05;;;;;;;22.70;20.25;;;16.60;99.90;;;;;;5066859;28;20028;-46
2021/09/25 06:25:30;;;;;;;23.58;18.25;;;16.60;99.90;;;;;;5039678;28;20040;-46
2021/09/25 06:27:56;;;;;;;23.88;18.05;;;16.60;99.90;;;;;;5043275;28;20052;-47
2021/09/25 06:30:22;;;;;;;22.33;18.75;;;16.70;99.90;;;;;;5036997;28;20156;-46
2021/09/25 06:32:47;;;;;;;19.27;16.77;;;16.60;99.90;;;;;;5036139;28;20098;-46
2021/09/25 06:35:15;;;;;;;19.77;17.75;;;16.70;99.90;;;;;;5038482;28;20028;-47
2021/09/25 06:37:41;;;;;;;18.45;16.45;;;16.70;99.90;;;;;;5047242;28;20098;-46
2021/09/25 06:40:07;;;;;;;21.95;18.67;;;16.80;99.90;;;;;;5047874;28;20067;-48
2021/09/25 06:42:33;;;;;;;23.63;17.92;;;16.80;99.90;;;;;;5047984;28;20442;-47
2021/09/25 06:44:58;;;;;;;22.25;19.85;;;16.80;99.90;;;;;;5048263;28;20028;-47
2021/09/25 06:47:24;;;;;;;24.85;21.15;;;16.80;99.90;;;;;;5047615;28;20425;-46
2021/09/25 06:49:49;;;;;;;24.40;19.40;;;16.80;99.90;;;;;;5046795;28;20078;-46
2021/09/25 06:52:16;;;;;;;22.13;19.75;;;16.80;99.90;;;;;;5047660;28;20075;-46
2021/09/25 06:54:41;;;;;;;23.23;19.65;;;16.80;99.90;;;;;;5039858;28;20038;-47
2021/09/25 06:57:08;;;;;;;25.20;19.80;;;16.80;99.90;;;;;;5060268;28;20386;-47
2021/09/25 06:59:34;;;;;;;28.25;21.63;;;16.80;99.90;;;;;;5055180;28;20074;-47
2021/09/25 07:02:00;;;;;;;23.02;19.63;;;16.80;99.90;;;;;;5050190;28;20029;-46
2021/09/25 07:04:25;;;;;;;23.73;18.60;;;16.80;99.90;;;;;;5051403;28;20059;-47
2021/09/25 07:06:51;;;;;;;21.75;19.25;;;16.80;99.90;;;;;;5050506;28;20068;-47
2021/09/25 07:09:16;;;;;;;26.85;20.55;;;16.80;99.90;;;;;;5050656;28;20059;-47
2021/09/25 07:11:42;;;;;;;28.42;20.48;;;16.90;99.90;;;;;;5049506;28;20033;-48
2021/09/25 07:14:07;;;;;;;24.88;18.98;;;16.90;99.90;;;;;;5048785;28;20028;-47
2021/09/25 07:16:33;;;;;;;23.70;20.33;;;16.90;99.90;;;;;;5050400;28;20033;-46
2021/09/25 07:18:59;;;;;;;25.55;21.45;;;16.90;99.90;;;;;;5050183;28;20052;-46
2021/09/25 07:21:24;;;;;;;25.48;21.08;;;16.90;99.90;;;;;;5051279;28;20033;-46
2021/09/25 07:23:50;;;;;;;27.65;21.63;;;16.90;99.90;;;;;;5051191;28;20075;-46
2021/09/25 07:26:15;;;;;;;24.30;20.95;;;16.90;99.90;;;;;;5057426;28;20486;-48
2021/09/25 07:28:41;;;;;;;23.30;20.80;;;16.90;99.90;;;;;;5066864;28;20033;-46
2021/09/25 07:31:09;;;;;;;24.27;20.15;;;17.00;99.90;;;;;;5071130;28;20036;-47
2021/09/25 07:33:35;;;;;;;23.73;19.65;;;17.00;99.90;;;;;;5070919;28;20028;-44
2021/09/25 07:36:01;;;;;;;22.90;19.00;;;17.00;99.90;;;;;;5070954;28;20079;-45
2021/09/25 07:38:26;;;;;;;21.98;18.02;;;17.10;99.90;;;;;;5070638;28;20048;-45
2021/09/25 07:40:54;;;;;;;20.30;17.92;;;17.10;99.90;;;;;;5070580;28;20020;-45
2021/09/25 07:43:20;;;;;;;23.23;18.15;;;17.20;99.90;;;;;;5070788;28;20494;-46
2021/09/25 07:45:45;;;;;;;24.52;20.27;;;17.20;99.90;;;;;;5070704;28;20059;-47
2021/09/25 07:48:11;;;;;;;19.92;17.23;;;17.40;99.90;;;;;;5070161;28;20104;-45
2021/09/25 07:50:37;;;;;;;18.35;15.82;;;17.40;99.90;;;;;;5070797;28;20347;-45
2021/09/25 07:53:02;;;;;;;18.13;16.15;;;17.40;99.90;;;;;;5070512;28;20024;-46
2021/09/25 07:55:28;;;;;;;21.63;16.90;;;17.40;99.90;;;;;;5056740;28;20032;-46
2021/09/25 07:57:53;;;;;;;21.63;18.90;;;17.50;99.90;;;;;;5061807;28;20070;-46
2021/09/25 08:00:19;;;;;;;18.23;16.17;;;17.60;99.90;;;;;;5070786;28;20047;-46
2021/09/25 08:02:45;;;;;;;21.55;16.65;;;17.70;99.90;;;;;;5070594;28;20040;-46
2021/09/25 08:05:12;;;;;;;19.88;17.45;;;17.70;99.90;;;;;;5070708;28;20020;-46
2021/09/25 08:07:38;;;;;;;16.15;14.45;;;17.70;99.90;;;;;;5069652;28;20036;-46
2021/09/25 08:10:07;;;;;;;19.08;16.98;;;17.60;99.90;;;;;;5069116;28;20021;-46
2021/09/25 08:12:33;;;;;;;22.30;15.63;;;17.70;99.90;;;;;;5070392;28;20024;-48
2021/09/25 08:14:59;;;;;;;19.27;16.50;;;17.70;99.90;;;;;;5070350;28;20032;-46
2021/09/25 08:17:26;;;;;;;21.42;17.15;;;17.80;99.90;;;;;;5069606;28;20047;-47
2021/09/25 08:19:52;;;;;;;17.30;14.75;;;17.80;99.90;;;;;;5070230;28;20078;-46
2021/09/25 08:22:17;;;;;;;19.70;15.15;;;17.80;99.90;;;;;;5070223;28;20029;-46
2021/09/25 08:24:43;;;;;;;15.13;13.38;;;17.90;99.90;;;;;;5058812;28;20037;-46
2021/09/25 08:27:12;;;;;;;16.98;13.93;;;17.90;99.90;;;;;;5061195;28;20416;-45
2021/09/25 08:29:38;;;;;;;15.70;13.13;;;18.00;99.90;;;;;;5070000;28;20417;-47
2021/09/25 08:32:04;;;;;;;14.35;11.32;;;18.00;99.90;;;;;;5070076;28;20548;-46
2021/09/25 08:34:29;;;;;;;15.20;12.20;;;18.00;99.90;;;;;;5068825;28;20032;-47
2021/09/25 08:36:55;;;;;;;13.38;11.80;;;18.00;99.90;;;;;;5069348;28;20082;-46
2021/09/25 08:39:21;;;;;;;13.48;11.43;;;18.10;99.90;;;;;;5068552;28;20473;-45
2021/09/25 08:41:49;;;;;;;14.45;12.90;;;17.90;99.90;;;;;;5068458;28;20025;-46
2021/09/25 08:44:15;;;;;;;14.30;12.50;;;18.00;99.90;;;;;;5069694;28;20040;-46
2021/09/25 08:46:41;;;;;;;12.93;11.63;;;18.10;99.90;;;;;;5069102;28;20092;-46
2021/09/25 08:49:07;;;;;;;12.88;10.88;;;18.10;99.90;;;;;;5069774;28;20155;-46
2021/09/25 08:51:33;;;;;;;14.55;12.00;;;18.10;99.90;;;;;;5069961;28;20032;-46
2021/09/25 08:53:59;;;;;;;15.55;11.65;;;18.20;99.90;;;;;;5069427;28;20064;-45
2021/09/25 08:56:27;;;;;;;11.75;10.38;;;18.20;99.90;;;;;;5052069;28;20071;-46
2021/09/25 08:58:53;;;;;;;16.08;9.90;;;18.20;99.90;;;;;;5067018;28;20073;-47
2021/09/25 09:01:21;;;;;;;12.30;10.93;;;18.20;99.90;;;;;;5069495;28;20032;-48
2021/09/25 09:03:51;;;;;;;12.75;11.30;;;18.20;99.90;;;;;;5069424;28;20074;-46
2021/09/25 09:06:36;;;;;;;12.82;11.50;;;18.10;99.90;;;;;;5069025;28;20024;-47
2021/09/25 09:09:08;;;;;;;15.18;11.27;;;18.10;99.90;;;;;;5069278;28;20544;-48
2021/09/25 09:11:39;;;;;;;15.07;11.77;;;18.10;99.90;;;;;;5069254;28;20071;-47
2021/09/25 09:14:04;;;;;;;14.43;11.30;;;18.10;99.90;;;;;;5069309;28;20190;-46
2021/09/25 09:16:30;;;;;;;13.23;11.10;;;18.10;99.90;;;;;;5069239;28;20494;-49
2021/09/25 09:18:58;;;;;;;13.05;11.57;;;18.10;99.90;;;;;;5068442;28;20047;-46
2021/09/25 09:21:26;;;;;;;12.57;11.27;;;18.10;99.90;;;;;;5069153;28;20043;-45
2021/09/25 09:23:56;;;;;;;13.43;10.40;;;18.20;99.90;;;;;;5069047;28;20032;-46
2021/09/25 09:26:24;;;;;;;12.93;10.97;;;18.20;99.90;;;;;;5054659;28;20029;-48
2021/09/25 09:28:52;;;;;;;16.67;13.85;;;18.30;99.90;;;;;;5066054;28;20028;-46
2021/09/25 09:31:19;;;;;;;16.35;11.65;;;18.30;99.90;;;;;;5068710;28;20641;-45
2021/09/25 09:33:56;;;;;;;11.68;10.02;;;18.30;99.90;;;;;;5068864;28;20039;-45
2021/09/25 09:36:39;;;;;;;13.48;10.18;;;18.40;99.90;;;;;;5068748;28;20071;-46
2021/09/25 09:39:17;;;;;;;10.90;9.18;;;18.30;99.90;;;;;;5068843;28;20031;-49
2021/09/25 09:41:55;;;;;;;12.55;9.07;;;18.30;99.90;;;;;;5067258;28;20069;-46
2021/09/25 09:44:26;;;;;;;9.80;8.70;;;18.30;99.90;;;;;;5067640;28;20032;-45
2021/09/25 09:46:57;;;;;;;;;;;18.30;99.90;;;;;;5068838;28;20094;-45
2021/09/25 09:49:37;;;;;;;8.63;7.63;;;18.30;99.90;;;;;;5067624;28;20320;-45
2021/09/25 09:52:10;;;;;;;9.07;7.97;;;18.20;99.90;;;;;;5068779;28;20397;-46
2021/09/25 09:54:45;;;;;;;9.43;7.63;;;18.20;99.90;;;;;;5061511;28;20104;-46
2021/09/25 09:57:17;;;;;;;13.27;7.35;;;18.20;99.90;;;;;;5046972;28;20032;-46
2021/09/25 09:59:47;;;;;;;9.77;7.28;;;18.10;99.90;;;;;;5048596;28;20024;-47
2021/09/25 10:02:15;;;;;;;10.05;7.32;;;18.00;99.90;;;;;;5047548;28;20017;-45
2021/09/25 10:04:41;;;;;;;10.80;7.47;;;18.00;99.90;;;;;;5048422;28;20029;-47
2021/09/25 10:07:07;;;;;;;10.82;6.72;;;18.10;99.90;;;;;;5048071;28;20112;-47
2021/09/25 10:09:35;;;;;;;9.73;7.38;;;18.10;99.90;;;;;;5048235;28;20067;-46
2021/09/25 10:12:10;;;;;;;9.75;6.57;;;18.10;99.90;;;;;;5048378;28;20029;-45
2021/09/25 10:14:38;;;;;;;10.20;6.82;;;18.20;99.90;;;;;;5048197;28;20107;-46
2021/09/25 10:17:09;;;;;;;7.68;5.63;;;18.40;99.90;;;;;;5047568;28;20067;-46
2021/09/25 10:19:37;;;;;;;10.50;5.40;;;18.60;99.90;;;;;;5048277;28;20095;-46
2021/09/25 10:22:14;;;;;;;8.65;5.80;;;18.60;99.90;;;;;;5048425;28;20025;-46
2021/09/25 10:24:47;;;;;;;6.68;5.25;;;18.80;99.90;;;;;;5045746;28;20025;-47
2021/09/25 10:27:14;;;;;;;6.97;4.78;;;18.80;99.90;;;;;;5048345;28;20040;-49
2021/09/25 10:29:48;;;;;;;8.15;4.80;;;18.90;99.90;;;;;;5049473;28;20021;-48
2021/09/25 10:32:28;;;;;;;9.80;4.97;;;19.00;99.90;;;;;;5052499;28;20052;-49
2021/09/25 10:35:12;;;;;;;8.23;5.07;;;19.10;99.90;;;;;;5052184;28;20068;-49
2021/09/25 10:37:41;;;;;;;8.43;4.93;;;19.30;99.90;;;;;;5051688;28;20261;-48
2021/09/25 10:40:15;;;;;;;10.77;5.40;;;19.50;99.90;;;;;;5051818;28;20047;-49
2021/09/25 10:42:45;;;;;;;9.48;5.13;;;19.50;99.90;;;;;;5050735;28;20356;-47
2021/09/25 10:45:35;;;;;;;7.65;4.57;;;19.60;99.90;;;;;;5050742;28;20248;-47
2021/09/25 10:48:15;;;;;;;8.80;5.47;;;19.60;99.90;;;;;;5048600;28;20064;-45
2021/09/25 10:50:50;;;;;;;12.38;5.38;;;19.50;99.90;;;;;;5052171;28;20256;-47
2021/09/25 10:53:22;;;;;;;10.98;4.97;;;19.60;99.90;;;;;;5051820;28;20029;-46
2021/09/25 10:55:50;;;;;;;7.90;4.85;;;19.70;99.90;;;;;;5056325;28;20035;-46
2021/09/25 10:58:25;;;;;;;8.23;4.75;;;19.80;99.90;;;;;;5063872;28;20497;-46
2021/09/25 11:00:58;;;;;;;7.53;4.32;;;19.80;99.90;;;;;;5071702;28;20474;-46
2021/09/25 11:03:48;;;;;;;13.82;5.47;;;19.80;99.90;;;;;;5071883;28;20090;-46
2021/09/25 11:06:21;;;;;;;8.55;5.25;;;19.80;99.90;;;;;;5071796;28;20048;-47
2021/09/25 11:08:56;;;;;;;8.88;5.32;;;19.80;99.90;;;;;;5071359;28;20029;-46
2021/09/25 11:11:48;;;;;;;10.50;5.00;;;19.80;99.90;;;;;;5071498;28;20103;-46
2021/09/25 11:14:21;;;;;;;8.50;5.55;;;19.80;99.90;;;;;;5071725;28;20036;-46
2021/09/25 11:17:00;;;;;;;7.85;5.70;;;19.80;99.90;;;;;;5071223;28;20021;-46
2021/09/25 11:19:26;;;;;;;11.90;5.70;;;19.70;99.90;;;;;;5070405;28;20047;-49
2021/09/25 11:22:10;;;;;;;11.02;6.13;;;19.70;99.90;;;;;;5071566;28;20267;-46
2021/09/25 11:24:40;;;;;;;11.88;5.63;;;19.60;99.90;;;;;;5069511;28;20036;-46
2021/09/25 11:27:11;;;;;;;9.80;5.45;;;19.60;99.90;;;;;;5061452;28;20398;-47
2021/09/25 11:30:10;;;;;;;10.38;5.55;;;19.70;99.90;;;;;;5071381;28;20029;-47
2021/09/25 11:32:41;;;;;;;10.93;5.88;;;19.80;99.90;;;;;;5071371;28;20024;-47
2021/09/25 11:35:13;;;;;;;9.13;4.78;;;20.00;99.90;;;;;;5071097;28;20029;-46
2021/09/25 11:38:03;;;;;;;8.75;5.28;;;20.40;99.90;;;;;;5070521;28;20039;-47
2021/09/25 11:40:30;;;;;;;;;;;20.90;99.90;;;;;;5068454;28;20106;-47
2021/09/25 11:43:01;;;;;;;7.20;4.93;;;21.10;99.90;;;;;;5070333;28;19910;-47
2021/09/25 11:45:33;;;;;;;5.90;4.72;;;21.10;99.90;;;;;;5070839;28;20020;-46
2021/09/25 11:48:02;;;;;;;9.70;5.72;;;21.20;99.90;;;;;;5070436;28;20024;-45
2021/09/25 11:50:30;;;;;;;5.47;3.75;;;21.30;99.90;;;;;;5071095;28;20020;-46
2021/09/25 11:53:02;;;;;;;6.65;4.53;;;21.70;99.90;;;;;;5070815;28;20062;-46
2021/09/25 11:55:30;;;;;;;10.57;4.10;;;22.10;99.90;;;;;;5064769;28;20512;-46
2021/09/25 11:58:05;;;;;;;6.05;3.83;;;23.30;99.90;;;;;;5060604;28;20031;-46
2021/09/25 12:00:45;;;;;;;10.57;4.55;;;24.00;99.90;;;;;;5070747;28;20044;-46
2021/09/25 12:03:11;;;;;;;5.75;4.22;;;24.10;99.90;;;;;;5070756;28;20019;-46
2021/09/25 12:05:39;;;;;;;6.35;3.55;;;23.90;99.90;;;;;;5069333;28;20024;-46
2021/09/25 12:08:19;;;;;;;5.32;3.95;;;23.70;99.90;;;;;;5068667;28;20107;-46
2021/09/25 12:10:47;;;;;;;7.88;4.43;;;23.60;99.90;;;;;;5070256;28;20020;-47
2021/09/25 12:13:17;;;;;;;5.10;3.08;;;23.50;99.90;;;;;;5070297;28;20024;-46
2021/09/25 12:15:45;;;;;;;7.72;4.20;;;23.50;99.90;;;;;;5070459;28;20122;-47
2021/09/25 12:18:17;;;;;;;6.72;4.30;;;23.40;99.90;;;;;;5069831;28;20478;-47
2021/09/25 12:20:56;;;;;;;9.73;4.80;;;23.40;99.90;;;;;;5070443;28;20038;-46
2021/09/25 12:23:26;;;;;;;5.55;3.42;;;23.00;99.90;;;;;;5069102;28;20076;-48
2021/09/25 12:25:52;;;;;;;7.68;3.67;;;23.10;99.90;;;;;;5066823;28;20459;-46
2021/09/25 12:28:28;;;;;;;6.40;4.22;;;24.00;99.90;;;;;;5062490;28;20365;-46
2021/09/25 12:30:58;;;;;;;5.72;3.35;;;25.20;99.90;;;;;;5070114;28;20032;-46
2021/09/25 12:33:24;;;;;;;5.25;4.00;;;25.40;98.70;;;;;;5068665;28;20119;-46